Flight Number: EUR3019 Duration: 7:00
Departure: Baltimore Washington Intl (KBWI) at 07:00 Distance: 3173 Nm
Arrival: Gatwick Airport (EGKK) at 14:00 Equipment: B777

Weather Information
BALTIMORE-WASHINGTON INTERNATIONAL , MD, United States (KBWI) 39-10N 076-41W 59M Nov 18, 2017 - 06:54 AM EST / 2017.11.18 1154 UTC
Wind: from the SSW (200 degrees) at 3 MPH (3 KT):0
Visibility: 10 mile(s):0
Sky conditions: mostly cloudy Temperature: 37.0 F (2.8 C) Dew Point: 30.9 F (-0.6 C) Relative Humidity: 78% Pressure (altimeter): 29.93 in. Hg (1013 hPa) Pressure tendency: 0.07 inches (2.4 hPa) lower than three hours ago
ob: KBWI 181154Z 20003KT 10SM FEW190 FEW210 BKN250 03/M01 A2993 RMK AO2 SLP136 T00281006 10028 21011 58024 cycle: 12
Sunrise: 11:57 Sunset: 21:46 (UTC)

London / Gatwick Airport, United Kingdom (EGKK) 51-09N 000-11W 0M Nov 18, 2017 - 06:50 AM EST / 2017.11.18 1150 UTC
Wind: from the SW (230 degrees) at 13 MPH (11 KT):0
Visibility: greater than 7 mile(s):0
Sky conditions: mostly cloudy Temperature: 46 F (8 C) Dew Point: 44 F (7 C) Relative Humidity: 93% Pressure (altimeter): 30.18 in. Hg (1022 hPa)
ob: EGKK 181150Z 23011KT 9999 FEW007 BKN015 08/07 Q1022 cycle: 12
Sunrise: 07:28 Sunset: 16:04 (UTC)

TAF:2017/11/18 12:20 TAF EGKK 181104Z 1812/1918 26009KT 9999 BKN030 TEMPO 1812/1819 7000 -RADZ BKN012 PROB30 TEMPO 1812/1819 4000 RADZ BKN006

Previous Pireps for this route
Date Aircraft Flight time Fuel used Landing rate On time
2013-02-04A34007.09176480-953No
2013-12-03B7479.10171000Yes
2016-06-07B77706.36127079-304No
(pireps marked green are flown by you)

Route map